Time;durP1;ratioP1;P1;durP2;ratioP2;P2;SDS_P1;SDS_P2;PMS_P1;PMS_P2;Temp;Humidity;BMP_temperature;BMP_pressure;BME280_temperature;BME280_humidity;BME280_pressure;Samples;Min_cycle;Max_cycle;Signal;HPM_P1;HPM_P2
2023/07/11 00:04:08;;;;;;;1.75;0.95;;;23.10;83.10;;;;;;10445859;28;20052;-67
2023/07/11 00:09:09;;;;;;;2.63;1.08;;;23.10;83.10;;;;;;10449592;28;20535;-67
2023/07/11 00:14:11;;;;;;;1.52;1.10;;;23.00;83.00;;;;;;10446799;28;20017;-68
2023/07/11 00:19:12;;;;;;;2.00;1.10;;;23.00;83.10;;;;;;10449069;28;20441;-68
2023/07/11 00:24:13;;;;;;;2.90;1.23;;;23.00;83.00;;;;;;10440680;28;20021;-68
2023/07/11 00:29:20;;;;;;;1.80;1.05;;;23.00;83.10;;;;;;10438669;28;20481;-68
2023/07/11 00:34:21;;;;;;;3.28;1.13;;;22.90;83.00;;;;;;10435464;28;20032;-69
2023/07/11 00:39:21;;;;;;;3.47;1.15;;;22.90;83.10;;;;;;10447903;28;20024;-68
2023/07/11 00:44:23;;;;;;;4.03;1.35;;;22.90;83.20;;;;;;10443298;28;20044;-68
2023/07/11 00:49:23;;;;;;;3.22;1.30;;;22.90;83.20;;;;;;10443406;28;20025;-67
2023/07/11 00:54:29;;;;;;;1.98;1.13;;;22.80;83.20;;;;;;10441267;28;20071;-68
2023/07/11 00:59:30;;;;;;;1.70;1.00;;;22.80;83.20;;;;;;10442022;28;20167;-68
2023/07/11 01:04:31;;;;;;;2.97;1.25;;;22.80;83.20;;;;;;10443655;28;20017;-68
2023/07/11 01:09:32;;;;;;;4.43;1.30;;;22.80;83.30;;;;;;10443530;28;20408;-68
2023/07/11 01:14:34;;;;;;;3.22;1.10;;;22.70;83.30;;;;;;10441935;28;20291;-68
2023/07/11 01:19:35;;;;;;;2.80;1.50;;;22.70;83.40;;;;;;10453840;28;20498;-68
2023/07/11 01:24:36;;;;;;;2.45;1.20;;;22.70;83.50;;;;;;10445060;28;20035;-68
2023/07/11 01:29:37;;;;;;;3.00;1.30;;;22.60;83.40;;;;;;10432594;28;20027;-67
2023/07/11 01:34:37;;;;;;;2.60;1.20;;;22.60;83.50;;;;;;10446666;28;20035;-68
2023/07/11 01:39:38;;;;;;;3.30;1.20;;;22.60;83.50;;;;;;10448353;28;20029;-67
2023/07/11 01:44:39;;;;;;;2.05;1.50;;;22.60;83.60;;;;;;10445764;28;20065;-68
2023/07/11 01:49:39;;;;;;;3.78;1.50;;;22.50;83.60;;;;;;10444761;28;20018;-68
2023/07/11 01:54:40;;;;;;;4.10;1.25;;;22.50;83.60;;;;;;10440973;28;20503;-68
2023/07/11 01:59:41;;;;;;;2.65;1.20;;;22.50;83.70;;;;;;10442057;28;20489;-68
2023/07/11 02:04:43;;;;;;;3.05;1.33;;;22.40;83.60;;;;;;10433311;28;20017;-68
2023/07/11 02:09:44;;;;;;;1.30;1.10;;;22.40;83.70;;;;;;10448064;28;20017;-68
2023/07/11 02:14:46;;;;;;;1.83;1.30;;;22.40;83.80;;;;;;10445070;28;20023;-68
2023/07/11 02:19:47;;;;;;;1.80;1.10;;;22.40;83.80;;;;;;10437997;28;20504;-68
2023/07/11 02:24:47;;;;;;;1.85;1.40;;;22.30;83.90;;;;;;10443322;28;20021;-68
2023/07/11 02:29:48;;;;;;;2.63;1.42;;;22.30;83.90;;;;;;10436187;28;20047;-68
2023/07/11 02:34:49;;;;;;;2.47;1.30;;;22.30;83.90;;;;;;10436530;28;20489;-68
2023/07/11 02:39:50;;;;;;;2.47;1.23;;;22.30;84.20;;;;;;10449315;28;20421;-68
2023/07/11 02:44:51;;;;;;;3.97;1.63;;;22.20;83.90;;;;;;10448605;28;20282;-68
2023/07/11 02:49:52;;;;;;;2.38;1.50;;;22.20;83.90;;;;;;10446418;28;20404;-68
2023/07/11 02:54:52;;;;;;;2.80;1.30;;;22.20;83.90;;;;;;10449601;28;20017;-67
2023/07/11 02:59:53;;;;;;;1.88;1.27;;;22.20;84.00;;;;;;10442214;28;20559;-68
2023/07/11 03:04:54;;;;;;;3.65;1.23;;;22.10;84.00;;;;;;10447011;28;20252;-67
2023/07/11 03:09:54;;;;;;;2.33;1.30;;;22.10;84.00;;;;;;10441247;28;20081;-68
2023/07/11 03:14:55;;;;;;;2.13;1.50;;;22.10;84.00;;;;;;10457262;28;20023;-68
2023/07/11 03:19:55;;;;;;;2.85;1.35;;;22.10;84.00;;;;;;10449644;28;20082;-68
2023/07/11 03:24:56;;;;;;;3.63;1.40;;;22.00;84.00;;;;;;10447248;28;20485;-68
2023/07/11 03:29:57;;;;;;;2.17;1.42;;;22.00;84.10;;;;;;10456131;28;20569;-68
2023/07/11 03:34:57;;;;;;;3.45;1.35;;;22.00;84.10;;;;;;10449072;28;20476;-68
2023/07/11 03:39:58;;;;;;;3.08;1.45;;;21.90;84.10;;;;;;10456744;28;20032;-68
2023/07/11 03:45:00;;;;;;;2.47;1.40;;;21.90;84.20;;;;;;10444373;28;20025;-68
2023/07/11 03:50:00;;;;;;;3.28;1.58;;;21.90;84.20;;;;;;10450602;28;20108;-68
2023/07/11 03:55:01;;;;;;;2.65;1.48;;;21.90;84.30;;;;;;10447850;28;20124;-68
2023/07/11 04:00:03;;;;;;;3.08;1.55;;;21.80;84.30;;;;;;10448829;28;20386;-67
2023/07/11 04:05:04;;;;;;;1.92;1.55;;;21.80;84.30;;;;;;10450844;28;20021;-68
2023/07/11 04:10:07;;;;;;;2.50;1.60;;;21.80;84.40;;;;;;10445445;28;20090;-68
2023/07/11 04:15:08;;;;;;;2.05;1.50;;;21.80;84.40;;;;;;10454284;28;20045;-68
2023/07/11 04:20:10;;;;;;;2.35;1.50;;;21.80;84.40;;;;;;10446954;28;20025;-68
2023/07/11 04:25:10;;;;;;;3.72;1.55;;;21.80;84.50;;;;;;10451246;28;20042;-68
2023/07/11 04:30:11;;;;;;;3.97;1.65;;;21.70;84.50;;;;;;10459844;28;20380;-68
2023/07/11 04:35:14;;;;;;;2.47;1.70;;;21.70;84.50;;;;;;10442913;28;20024;-67
2023/07/11 04:40:15;;;;;;;3.90;1.40;;;21.70;84.60;;;;;;10454573;28;20104;-68
2023/07/11 04:45:15;;;;;;;2.20;1.63;;;21.70;84.60;;;;;;10450836;28;20025;-68
2023/07/11 04:50:16;;;;;;;4.93;1.88;;;21.70;84.70;;;;;;10461498;28;20040;-68
2023/07/11 04:55:17;;;;;;;2.20;1.38;;;21.70;84.70;;;;;;10439218;28;20503;-68
2023/07/11 05:00:18;;;;;;;3.47;1.70;;;21.70;84.70;;;;;;10443803;28;20489;-67
2023/07/11 05:05:18;;;;;;;3.13;1.80;;;21.70;84.80;;;;;;10441120;28;20029;-68
2023/07/11 05:10:19;;;;;;;2.25;1.60;;;21.60;84.70;;;;;;10449377;28;20025;-68
2023/07/11 05:15:19;;;;;;;4.53;1.90;;;21.60;84.70;;;;;;10444862;28;20132;-68
2023/07/11 05:20:20;;;;;;;2.45;1.77;;;21.60;84.70;;;;;;10451194;28;20288;-68
2023/07/11 05:25:20;;;;;;;4.15;1.80;;;21.60;84.70;;;;;;10455129;28;20033;-67
2023/07/11 05:30:21;;;;;;;2.95;1.80;;;21.60;84.70;;;;;;10454421;28;20488;-68
2023/07/11 05:35:22;;;;;;;3.60;1.88;;;21.60;84.70;;;;;;10452093;28;20017;-67
2023/07/11 05:40:22;;;;;;;2.83;1.70;;;21.60;84.70;;;;;;10448910;28;20021;-68
2023/07/11 05:45:23;;;;;;;2.60;1.75;;;21.60;84.70;;;;;;10446349;28;20503;-68
2023/07/11 05:50:24;;;;;;;5.57;1.90;;;21.60;84.70;;;;;;10441971;28;20104;-67
2023/07/11 05:55:25;;;;;;;3.20;2.08;;;21.60;84.70;;;;;;10437800;28;20119;-68
2023/07/11 06:00:25;;;;;;;2.67;2.17;;;21.60;84.70;;;;;;10445124;28;20218;-68
2023/07/11 06:05:27;;;;;;;5.60;1.80;;;21.60;84.80;;;;;;10421704;28;20028;-67
2023/07/11 06:10:28;;;;;;;3.53;1.90;;;21.60;84.80;;;;;;10441030;28;20028;-68
2023/07/11 06:15:29;;;;;;;2.15;1.80;;;21.70;84.80;;;;;;10436825;28;20049;-68
2023/07/11 06:20:30;;;;;;;3.47;2.25;;;21.60;84.80;;;;;;10438714;28;20120;-68
2023/07/11 06:25:31;;;;;;;3.65;2.10;;;21.70;84.90;;;;;;10438161;28;20130;-68
2023/07/11 06:30:31;;;;;;;7.85;2.47;;;21.70;84.90;;;;;;10453090;28;20120;-68
2023/07/11 06:35:35;;;;;;;3.72;2.15;;;21.70;85.00;;;;;;10453185;28;20029;-68
2023/07/11 06:40:35;;;;;;;4.00;2.33;;;21.70;85.00;;;;;;10454441;28;20021;-68
2023/07/11 06:45:36;;;;;;;4.22;2.15;;;21.70;85.10;;;;;;10441603;28;20021;-68
2023/07/11 06:50:37;;;;;;;3.78;2.20;;;21.70;85.10;;;;;;10453970;28;20090;-68
2023/07/11 06:55:43;;;;;;;4.20;2.50;;;21.70;85.10;;;;;;10449055;28;20449;-68
2023/07/11 07:00:44;;;;;;;3.10;2.22;;;21.70;85.20;;;;;;10446524;28;20025;-68
2023/07/11 07:05:48;;;;;;;5.90;2.38;;;21.70;85.20;;;;;;10452002;28;20423;-68
2023/07/11 07:10:50;;;;;;;4.10;2.38;;;21.80;85.30;;;;;;10454114;28;20025;-68
2023/07/11 07:15:53;;;;;;;3.33;2.15;;;21.80;85.20;;;;;;10454209;28;20381;-68
2023/07/11 07:20:54;;;;;;;3.42;2.20;;;21.90;85.30;;;;;;10449560;28;20112;-68
2023/07/11 07:25:58;;;;;;;3.78;2.15;;;21.80;85.10;;;;;;10438960;28;20048;-68
2023/07/11 07:30:59;;;;;;;3.40;2.13;;;21.90;85.10;;;;;;10441396;28;20124;-68
2023/07/11 07:36:05;;;;;;;2.65;2.05;;;21.90;85.00;;;;;;10451720;28;20055;-68
2023/07/11 07:41:09;;;;;;;3.60;2.30;;;22.00;85.00;;;;;;10443313;28;20027;-68
2023/07/11 07:46:13;;;;;;;4.97;2.33;;;22.10;85.00;;;;;;10440435;28;20023;-68
2023/07/11 07:51:17;;;;;;;3.05;2.10;;;22.10;85.00;;;;;;10445505;28;20061;-68
2023/07/11 07:56:21;;;;;;;2.45;2.00;;;22.20;85.00;;;;;;10441700;28;20379;-68
2023/07/11 08:01:22;;;;;;;5.80;2.40;;;22.20;85.00;;;;;;10437827;28;20461;-68
2023/07/11 08:06:23;;;;;;;4.43;2.17;;;22.30;85.00;;;;;;10451662;28;20083;-68
2023/07/11 08:11:23;;;;;;;3.30;2.00;;;22.30;85.00;;;;;;10446776;28;20071;-68
2023/07/11 08:16:24;;;;;;;5.50;2.30;;;22.40;85.00;;;;;;10436633;28;20108;-68
2023/07/11 08:21:25;;;;;;;3.08;2.25;;;22.40;85.60;;;;;;10445744;28;20497;-68
2023/07/11 08:26:26;;;;;;;5.63;2.45;;;22.50;84.90;;;;;;10442564;28;20039;-68
2023/07/11 08:31:26;;;;;;;3.78;2.40;;;22.50;85.10;;;;;;10445008;28;20467;-67
2023/07/11 08:36:27;;;;;;;2.47;2.00;;;22.60;84.80;;;;;;10446269;28;20481;-68
2023/07/11 08:41:44;;;;;;;4.45;2.17;;;22.60;84.70;;;;;;10443029;28;20401;-68
2023/07/11 08:46:51;;;;;;;3.53;2.28;;;22.70;84.90;;;;;;10437072;28;20213;-67
2023/07/11 08:51:55;;;;;;;3.90;2.10;;;22.70;84.70;;;;;;10438108;28;20009;-68
2023/07/11 08:56:59;;;;;;;4.85;2.42;;;22.80;84.60;;;;;;10450778;28;20021;-68
2023/07/11 09:02:40;;;;;;;3.03;2.08;;;22.90;84.60;;;;;;10441460;28;20096;-68
2023/07/11 09:07:45;;;;;;;5.55;2.00;;;22.90;84.70;;;;;;10439642;28;20025;-68
2023/07/11 09:13:04;;;;;;;3.20;2.03;;;23.00;84.50;;;;;;10443655;28;20028;-68
2023/07/11 09:18:31;;;;;;;3.05;2.00;;;23.00;84.50;;;;;;10414460;28;20396;-68
2023/07/11 09:23:41;;;;;;;4.25;2.05;;;23.10;84.70;;;;;;10432228;28;20116;-68
2023/07/11 09:28:42;;;;;;;4.15;1.90;;;23.20;84.30;;;;;;10411593;28;20034;-68
2023/07/11 09:33:51;;;;;;;3.47;2.22;;;23.20;84.10;;;;;;10416428;28;20505;-68
2023/07/11 09:39:16;;;;;;;3.08;1.92;;;23.30;84.10;;;;;;10419754;28;20018;-68
2023/07/11 09:44:17;;;;;;;4.30;1.95;;;23.40;84.20;;;;;;10410806;28;20813;-68
2023/07/11 09:49:28;;;;;;;3.67;2.17;;;23.40;83.90;;;;;;10419355;28;20025;-68
2023/07/11 09:54:44;;;;;;;3.80;2.00;;;23.40;83.90;;;;;;10415347;28;20025;-68
2023/07/11 09:59:53;;;;;;;2.72;1.77;;;23.50;83.90;;;;;;10411488;28;20400;-68
2023/07/11 10:04:57;;;;;;;4.93;2.20;;;23.60;83.80;;;;;;10411659;28;20371;-68
2023/07/11 10:10:02;;;;;;;3.13;1.80;;;23.60;83.70;;;;;;10409503;28;20028;-68
2023/07/11 10:15:12;;;;;;;2.78;1.75;;;23.70;83.60;;;;;;10416166;28;20029;-68
2023/07/11 10:20:16;;;;;;;3.08;1.88;;;23.70;83.50;;;;;;10410209;28;20013;-68
2023/07/11 10:25:28;;;;;;;3.05;1.70;;;23.80;83.50;;;;;;10413328;28;20025;-68
2023/07/11 10:30:32;;;;;;;2.88;1.85;;;23.90;83.40;;;;;;10384369;28;20045;-68
2023/07/11 10:35:34;;;;;;;3.95;1.77;;;23.90;83.30;;;;;;10394461;28;20034;-68
2023/07/11 10:40:41;;;;;;;3.83;2.10;;;24.00;83.20;;;;;;10388099;28;20164;-68
2023/07/11 10:45:47;;;;;;;2.35;1.83;;;24.00;83.20;;;;;;10383435;28;20026;-68
2023/07/11 10:50:54;;;;;;;3.35;1.70;;;24.10;83.20;;;;;;10379692;28;20022;-69
2023/07/11 10:56:18;;;;;;;5.30;2.07;;;24.10;83.00;;;;;;10387289;28;20030;-68
2023/07/11 11:01:35;;;;;;;6.28;2.40;;;24.20;82.90;;;;;;10385491;28;20272;-68
2023/07/11 11:06:53;;;;;;;2.85;1.80;;;24.20;82.80;;;;;;10373797;28;20068;-68
2023/07/11 11:12:04;;;;;;;2.55;1.77;;;24.30;82.80;;;;;;10376254;28;20061;-69
2023/07/11 11:17:14;;;;;;;2.83;1.75;;;24.40;82.70;;;;;;10393531;28;20065;-68
2023/07/11 11:22:34;;;;;;;2.33;1.70;;;24.40;82.60;;;;;;10376490;28;20360;-69
2023/07/11 11:27:50;;;;;;;3.58;2.00;;;24.50;82.60;;;;;;10389442;28;20203;-68
2023/07/11 11:33:02;;;;;;;3.45;2.17;;;24.50;82.50;;;;;;10385606;28;20512;-68
2023/07/11 11:38:17;;;;;;;4.13;2.00;;;24.60;82.40;;;;;;10389028;28;20448;-68
2023/07/11 11:43:19;;;;;;;4.22;2.05;;;24.70;82.20;;;;;;10383388;28;20045;-68
2023/07/11 11:48:22;;;;;;;3.45;1.95;;;24.80;82.10;;;;;;10383242;28;20048;-68
2023/07/11 11:53:35;;;;;;;2.90;2.15;;;24.90;82.00;;;;;;10388481;28;20113;-68
2023/07/11 11:58:56;;;;;;;4.85;1.95;;;24.90;81.70;;;;;;10390569;28;20021;-68
2023/07/11 12:03:57;;;;;;;6.60;2.10;;;25.00;81.70;;;;;;10380391;28;20445;-68
2023/07/11 12:09:16;;;;;;;3.33;1.88;;;25.00;81.70;;;;;;10374161;28;20046;-69
2023/07/11 12:14:28;;;;;;;2.65;1.73;;;25.20;82.10;;;;;;10367284;28;20036;-68
2023/07/11 12:19:30;;;;;;;5.80;2.00;;;25.20;81.30;;;;;;10404837;28;20180;-70
2023/07/11 12:24:34;;;;;;;5.28;2.05;;;25.30;81.30;;;;;;10370092;28;20025;-69
2023/07/11 12:29:35;;;;;;;6.43;2.78;;;25.40;81.20;;;;;;10366297;28;20116;-69
2023/07/11 12:34:35;;;;;;;4.90;2.10;;;25.50;81.00;;;;;;10375382;28;20076;-69
2023/07/11 12:40:06;;;;;;;4.45;2.10;;;25.50;80.90;;;;;;10371695;28;20025;-68
2023/07/11 12:45:23;;;;;;;4.53;2.10;;;25.60;81.00;;;;;;10372899;28;20017;-68
2023/07/11 12:50:32;;;;;;;3.53;2.35;;;25.60;80.90;;;;;;10369436;28;20038;-68
2023/07/11 12:55:33;;;;;;;2.97;2.03;;;25.70;81.10;;;;;;10374032;28;20030;-69
2023/07/11 13:00:34;;;;;;;2.55;2.00;;;25.70;81.20;;;;;;10378716;28;20063;-68
2023/07/11 13:05:35;;;;;;;3.83;1.90;;;25.70;81.20;;;;;;10372209;28;20087;-68
2023/07/11 13:10:36;;;;;;;4.20;2.10;;;25.70;81.30;;;;;;10367116;28;20053;-69
2023/07/11 13:15:38;;;;;;;4.22;1.75;;;25.70;81.30;;;;;;10362275;28;20105;-68
2023/07/11 13:20:40;;;;;;;3.58;2.13;;;25.70;81.50;;;;;;10364082;28;20017;-69
2023/07/11 13:25:41;;;;;;;3.80;2.10;;;25.70;81.50;;;;;;10368354;28;20292;-68
2023/07/11 13:30:41;;;;;;;2.50;1.75;;;25.80;81.50;;;;;;10370088;28;20026;-68
2023/07/11 13:35:57;;;;;;;3.17;1.98;;;25.80;81.50;;;;;;10364582;28;20038;-69
2023/07/11 13:40:59;;;;;;;4.97;2.45;;;25.80;81.50;;;;;;10363482;28;20033;-68
2023/07/11 13:46:00;;;;;;;2.90;2.17;;;25.90;81.70;;;;;;10366155;28;20037;-68
2023/07/11 13:51:19;;;;;;;5.18;2.00;;;25.80;81.60;;;;;;10369904;28;20449;-68
2023/07/11 13:56:20;;;;;;;3.22;2.22;;;25.80;81.60;;;;;;10367443;28;20096;-68
2023/07/11 14:01:22;;;;;;;2.92;1.92;;;25.80;81.70;;;;;;10364802;28;20041;-68
2023/07/11 14:06:23;;;;;;;4.15;2.40;;;25.90;81.90;;;;;;10373896;28;20029;-68
2023/07/11 14:11:23;;;;;;;4.05;1.95;;;25.90;81.90;;;;;;10374669;28;20077;-68
2023/07/11 14:16:24;;;;;;;4.28;2.10;;;25.90;82.00;;;;;;10371945;28;20233;-68
2023/07/11 14:21:24;;;;;;;3.65;2.15;;;25.90;82.10;;;;;;10377540;28;20018;-68
2023/07/11 14:26:25;;;;;;;2.65;2.08;;;25.90;82.20;;;;;;10378137;28;20101;-69
2023/07/11 14:31:26;;;;;;;3.20;1.95;;;26.00;82.20;;;;;;10381008;28;20506;-68
2023/07/11 14:36:26;;;;;;;2.67;2.03;;;26.00;82.30;;;;;;10381937;28;20409;-68
2023/07/11 14:41:27;;;;;;;2.72;1.80;;;26.00;82.30;;;;;;10378681;28;20029;-68
2023/07/11 14:46:27;;;;;;;3.08;1.98;;;26.10;82.30;;;;;;10376545;28;20038;-69
2023/07/11 14:51:28;;;;;;;3.15;2.05;;;26.10;82.30;;;;;;10377176;28;20036;-68
2023/07/11 14:56:29;;;;;;;2.30;1.95;;;26.20;82.20;;;;;;10382106;28;20057;-68
2023/07/11 15:01:30;;;;;;;4.15;1.95;;;26.30;82.20;;;;;;10380140;28;20025;-68
2023/07/11 15:06:31;;;;;;;5.15;2.03;;;26.40;82.10;;;;;;10375034;28;20529;-69
2023/07/11 15:11:39;;;;;;;2.42;2.00;;;26.50;82.10;;;;;;10376578;28;20022;-67
2023/07/11 15:16:39;;;;;;;3.60;1.98;;;26.60;81.90;;;;;;10374530;28;20042;-67
2023/07/11 15:21:40;;;;;;;2.45;1.95;;;26.70;82.30;;;;;;10377495;28;20021;-67
2023/07/11 15:26:42;;;;;;;2.55;1.90;;;26.80;81.60;;;;;;10383176;28;20041;-66
2023/07/11 15:31:46;;;;;;;2.50;1.90;;;26.90;81.80;;;;;;10373635;28;20021;-67
2023/07/11 15:36:47;;;;;;;2.90;1.80;;;26.90;81.70;;;;;;10375667;28;20432;-66
2023/07/11 15:41:58;;;;;;;5.15;1.80;;;26.90;81.80;;;;;;10378331;28;20024;-68
2023/07/11 15:46:59;;;;;;;3.60;2.00;;;26.90;81.90;;;;;;10380714;28;20123;-67
2023/07/11 15:52:00;;;;;;;3.10;1.98;;;26.80;82.10;;;;;;10376782;28;20160;-66
2023/07/11 15:57:00;;;;;;;4.68;1.92;;;26.80;82.20;;;;;;10375033;28;20017;-68
2023/07/11 16:02:01;;;;;;;3.45;1.90;;;26.80;82.20;;;;;;10376604;28;20024;-66
2023/07/11 16:07:02;;;;;;;3.85;2.15;;;26.80;82.30;;;;;;10369009;28;20569;-67
2023/07/11 16:12:03;;;;;;;3.42;2.00;;;26.80;82.50;;;;;;10372624;28;20508;-67
2023/07/11 16:17:05;;;;;;;2.60;2.20;;;26.80;82.60;;;;;;10378884;28;20029;-66
2023/07/11 16:22:09;;;;;;;2.97;2.10;;;26.70;82.80;;;;;;10380841;28;20028;-66
2023/07/11 16:27:18;;;;;;;3.30;1.75;;;26.70;83.00;;;;;;10379364;28;20042;-67
2023/07/11 16:32:18;;;;;;;4.22;1.85;;;26.70;83.10;;;;;;10375798;28;20018;-66
2023/07/11 16:37:19;;;;;;;2.80;1.80;;;26.60;83.20;;;;;;10371601;28;20061;-66
2023/07/11 16:42:22;;;;;;;3.45;1.77;;;26.60;83.30;;;;;;10378860;28;20022;-67
2023/07/11 16:47:23;;;;;;;3.22;1.98;;;26.60;83.50;;;;;;10370197;28;20113;-67
2023/07/11 16:52:24;;;;;;;2.97;1.98;;;26.50;83.60;;;;;;10376308;28;20108;-66
2023/07/11 16:57:24;;;;;;;3.65;2.00;;;26.50;83.70;;;;;;10370666;28;20029;-66
2023/07/11 17:02:26;;;;;;;3.58;1.90;;;26.50;83.80;;;;;;10375593;28;20014;-67
2023/07/11 17:07:28;;;;;;;2.13;1.80;;;26.50;83.90;;;;;;10372317;28;20117;-66
2023/07/11 17:12:29;;;;;;;2.00;1.70;;;26.40;83.90;;;;;;10371339;28;20022;-66
2023/07/11 17:17:30;;;;;;;2.28;1.70;;;26.40;84.00;;;;;;10376300;28;21739;-64
2023/07/11 17:22:31;;;;;;;2.03;1.50;;;26.40;84.20;;;;;;10373587;28;20022;-65
2023/07/11 17:27:31;;;;;;;3.63;1.80;;;26.30;84.30;;;;;;10378890;28;20433;-65
2023/07/11 17:32:32;;;;;;;2.90;1.70;;;26.30;84.40;;;;;;10371835;28;20030;-66
2023/07/11 17:37:36;;;;;;;4.10;2.65;;;26.20;84.60;;;;;;10380688;28;20033;-68
2023/07/11 17:42:37;;;;;;;3.60;1.67;;;26.20;84.80;;;;;;10377552;28;20013;-67
2023/07/11 17:47:38;;;;;;;3.70;2.05;;;26.20;84.80;;;;;;10377493;28;20030;-67
2023/07/11 17:52:38;;;;;;;2.85;1.83;;;26.20;84.90;;;;;;10385055;28;20029;-67
2023/07/11 17:57:40;;;;;;;2.83;1.65;;;26.20;84.90;;;;;;10379249;28;20029;-67
2023/07/11 18:02:41;;;;;;;3.75;1.90;;;26.20;84.90;;;;;;10381116;28;20026;-67
2023/07/11 18:07:42;;;;;;;3.60;1.70;;;26.20;85.00;;;;;;10381712;28;20025;-67
2023/07/11 18:12:42;;;;;;;3.13;1.60;;;26.20;85.00;;;;;;10384760;28;20026;-67
2023/07/11 18:17:43;;;;;;;3.60;1.67;;;26.10;85.10;;;;;;10390344;28;20259;-67
2023/07/11 18:22:45;;;;;;;1.98;1.30;;;26.10;85.20;;;;;;10377213;28;20028;-67
2023/07/11 18:27:47;;;;;;;2.80;1.70;;;26.00;85.10;;;;;;10381861;28;20029;-67
2023/07/11 18:32:51;;;;;;;2.60;1.80;;;26.00;85.30;;;;;;10384106;28;20030;-68
2023/07/11 18:37:52;;;;;;;1.63;1.40;;;26.00;85.30;;;;;;10377825;28;20076;-67
2023/07/11 18:42:53;;;;;;;1.55;1.42;;;25.90;85.40;;;;;;10380576;28;20079;-68
2023/07/11 18:47:55;;;;;;;2.67;1.83;;;25.90;85.50;;;;;;10369947;28;20050;-68
2023/07/11 18:52:56;;;;;;;2.45;1.70;;;25.80;85.60;;;;;;10383390;28;20033;-67
2023/07/11 18:57:58;;;;;;;1.95;1.50;;;25.80;85.60;;;;;;10377484;28;20033;-69
2023/07/11 19:02:59;;;;;;;2.67;1.52;;;25.80;85.80;;;;;;10371808;28;20032;-69
2023/07/11 19:08:00;;;;;;;1.77;1.40;;;25.70;85.70;;;;;;10380059;28;20285;-69
2023/07/11 19:13:01;;;;;;;1.67;1.40;;;25.70;85.90;;;;;;10388886;28;20029;-69
2023/07/11 19:18:06;;;;;;;2.30;1.73;;;25.60;85.80;;;;;;10382451;28;20447;-69
2023/07/11 19:23:12;;;;;;;1.90;1.67;;;25.60;85.90;;;;;;10372848;28;20454;-69
2023/07/11 19:28:14;;;;;;;1.70;1.42;;;25.60;86.00;;;;;;10381470;28;20129;-69
2023/07/11 19:33:16;;;;;;;1.88;1.42;;;25.50;86.00;;;;;;10376313;28;20113;-69
2023/07/11 19:38:20;;;;;;;1.98;1.40;;;25.50;86.10;;;;;;10376787;28;20026;-68
2023/07/11 19:43:22;;;;;;;3.10;1.58;;;25.50;86.20;;;;;;10378430;28;20449;-71
2023/07/11 19:48:25;;;;;;;2.90;1.42;;;25.40;86.20;;;;;;10378822;28;20029;-71
2023/07/11 19:53:33;;;;;;;2.30;1.50;;;25.20;86.30;;;;;;10380722;28;20059;-70
2023/07/11 19:58:34;;;;;;;4.43;1.77;;;24.90;87.10;;;;;;10386483;28;20036;-70
2023/07/11 20:03:35;;;;;;;3.22;1.65;;;24.70;87.60;;;;;;10377110;28;20022;-71
2023/07/11 20:08:35;;;;;;;2.95;1.15;;;24.40;88.20;;;;;;10377246;28;20104;-68
2023/07/11 20:13:36;;;;;;;1.88;1.10;;;24.10;88.70;;;;;;10372740;28;20029;-69
2023/07/11 20:18:37;;;;;;;2.70;1.40;;;24.00;88.90;;;;;;10370886;28;20029;-69
2023/07/11 20:23:38;;;;;;;3.63;1.40;;;24.00;89.10;;;;;;10372216;28;20454;-69
2023/07/11 20:28:39;;;;;;;1.77;1.33;;;24.00;89.30;;;;;;10367137;28;20074;-70
2023/07/11 20:33:40;;;;;;;2.38;1.02;;;23.90;89.40;;;;;;10375529;28;20084;-69
2023/07/11 20:38:40;;;;;;;3.80;1.67;;;23.80;89.50;;;;;;10353925;28;20117;-69
2023/07/11 20:43:42;;;;;;;2.85;1.20;;;23.90;89.40;;;;;;10367922;28;20030;-70
2023/07/11 20:48:44;;;;;;;2.63;1.20;;;24.00;89.10;;;;;;10373400;28;20041;-71
2023/07/11 20:53:44;;;;;;;2.13;1.20;;;24.10;88.90;;;;;;10367518;28;20029;-70
2023/07/11 20:58:46;;;;;;;2.33;1.05;;;24.20;88.80;;;;;;10366739;28;20060;-69
2023/07/11 21:04:01;;;;;;;2.20;1.38;;;24.20;88.60;;;;;;10368696;28;20501;-72
2023/07/11 21:09:04;;;;;;;2.72;1.67;;;24.20;88.50;;;;;;10373733;28;20029;-70
2023/07/11 21:14:05;;;;;;;3.78;1.50;;;24.30;88.40;;;;;;10366430;28;20025;-69
2023/07/11 21:19:06;;;;;;;2.92;1.27;;;24.30;88.30;;;;;;10368981;28;20023;-70
2023/07/11 21:24:06;;;;;;;1.10;0.93;;;24.30;88.20;;;;;;10382241;28;20431;-69
2023/07/11 21:29:12;;;;;;;4.00;1.27;;;24.30;88.20;;;;;;10374406;28;20105;-69
2023/07/11 21:34:13;;;;;;;2.60;1.60;;;24.30;88.30;;;;;;10363513;28;20026;-69
2023/07/11 21:39:15;;;;;;;2.13;1.13;;;24.30;88.40;;;;;;10376262;28;20037;-69
2023/07/11 21:44:16;;;;;;;2.35;1.27;;;24.20;88.50;;;;;;10367393;28;20022;-68
2023/07/11 21:49:16;;;;;;;2.97;1.10;;;24.20;88.60;;;;;;10366711;28;20026;-68
2023/07/11 21:54:17;;;;;;;4.57;1.30;;;24.20;88.70;;;;;;10369134;28;20018;-68
2023/07/11 21:59:21;;;;;;;3.55;1.35;;;24.10;88.80;;;;;;10371621;28;20513;-69
2023/07/11 22:04:22;;;;;;;2.33;1.20;;;24.10;88.90;;;;;;10362407;28;20490;-68
2023/07/11 22:09:23;;;;;;;2.47;1.30;;;24.10;89.00;;;;;;10372470;28;21020;-69
2023/07/11 22:14:23;;;;;;;2.30;1.10;;;24.10;89.10;;;;;;10369149;28;20517;-67
2023/07/11 22:19:24;;;;;;;3.25;1.13;;;24.00;89.10;;;;;;10377759;28;20049;-67
2023/07/11 22:24:24;;;;;;;1.70;1.00;;;24.00;89.30;;;;;;10381441;28;20022;-67
2023/07/11 22:29:25;;;;;;;3.13;1.10;;;24.00;89.40;;;;;;10376900;28;20029;-67
2023/07/11 22:34:26;;;;;;;2.47;1.33;;;24.00;89.40;;;;;;10391210;28;20030;-67
2023/07/11 22:39:26;;;;;;;2.00;1.10;;;23.90;89.50;;;;;;10378212;28;20108;-67
2023/07/11 22:44:27;;;;;;;2.55;1.13;;;23.90;89.60;;;;;;10379899;28;20100;-67
2023/07/11 22:49:28;;;;;;;1.65;1.13;;;23.80;89.70;;;;;;10379841;28;20269;-67
2023/07/11 22:54:28;;;;;;;2.40;1.00;;;23.80;89.80;;;;;;10374456;28;20026;-67
2023/07/11 22:59:29;;;;;;;2.25;1.00;;;23.80;89.90;;;;;;10381414;28;20033;-68
2023/07/11 23:04:31;;;;;;;2.53;1.20;;;23.80;90.00;;;;;;10379418;28;20034;-67
2023/07/11 23:09:32;;;;;;;1.88;0.80;;;23.70;90.00;;;;;;10368359;28;20117;-67
2023/07/11 23:14:32;;;;;;;2.08;0.88;;;23.70;90.00;;;;;;10384243;28;20038;-67
2023/07/11 23:19:34;;;;;;;2.95;0.95;;;23.70;90.00;;;;;;10385152;28;20097;-67
2023/07/11 23:24:35;;;;;;;1.63;0.80;;;23.70;90.10;;;;;;10383688;28;20712;-67
2023/07/11 23:29:38;;;;;;;1.42;0.80;;;23.70;90.10;;;;;;10375422;28;20025;-67
2023/07/11 23:34:38;;;;;;;0.80;0.80;;;23.60;90.10;;;;;;10393235;28;20018;-67
2023/07/11 23:39:39;;;;;;;1.88;1.17;;;23.60;90.40;;;;;;10377513;28;20022;-68
2023/07/11 23:44:39;;;;;;;1.60;0.85;;;23.60;90.20;;;;;;10383477;28;20424;-67
2023/07/11 23:49:40;;;;;;;1.17;1.00;;;23.60;90.30;;;;;;10386601;28;20026;-67
2023/07/11 23:54:42;;;;;;;1.48;1.25;;;23.50;90.30;;;;;;10383887;28;20108;-67
2023/07/11 23:59:43;;;;;;;1.92;1.17;;;23.50;90.30;;;;;;10388361;28;20017;-67
